Time;durP1;ratioP1;P1;durP2;ratioP2;P2;SDS_P1;SDS_P2;PMS_P1;PMS_P2;Temp;Humidity;BMP_temperature;BMP_pressure;BME280_temperature;BME280_humidity;BME280_pressure;Samples;Min_cycle;Max_cycle;Signal;HPM_P1;HPM_P2
2021/10/13 00:00:25;;;;;;;6.33;4.50;;;;;;;;;;6225164;28;20228;-53
2021/10/13 00:03:47;;;;;;;6.23;4.53;;;;;;;;;;6234911;28;20240;-51
2021/10/13 00:07:08;;;;;;;5.37;4.53;;;;;;;;;;6232823;28;20251;-54
2021/10/13 00:10:28;;;;;;;6.07;4.37;;;;;;;;;;6233902;28;20629;-52
2021/10/13 00:13:49;;;;;;;7.20;4.43;;;;;;;;;;6232272;28;20216;-53
2021/10/13 00:17:09;;;;;;;4.87;3.73;;;;;;;;;;6230520;28;20264;-53
2021/10/13 00:20:31;;;;;;;6.10;3.97;;;;;;;;;;6232012;28;20734;-53
2021/10/13 00:23:51;;;;;;;4.93;4.43;;;;;;;;;;6234045;28;20279;-55
2021/10/13 00:27:12;;;;;;;7.73;5.17;;;;;;;;;;6230489;28;20233;-53
2021/10/13 00:30:32;;;;;;;4.90;4.47;;;;;;;;;;6230282;28;20232;-51
2021/10/13 00:33:53;;;;;;;6.43;4.97;;;;;;;;;;6230555;28;20201;-53
2021/10/13 00:37:15;;;;;;;4.77;4.00;;;;;;;;;;6231880;28;20228;-50
2021/10/13 00:40:35;;;;;;;4.70;4.27;;;;;;;;;;6228438;28;20260;-50
2021/10/13 00:43:55;;;;;;;5.40;4.57;;;;;;;;;;6232343;28;20204;-52
2021/10/13 00:47:16;;;;;;;6.00;4.50;;;;;;;;;;6230590;28;20514;-54
2021/10/13 00:50:36;;;;;;;4.77;4.37;;;;;;;;;;6231564;28;20224;-54
2021/10/13 00:53:58;;;;;;;6.20;5.30;;;;;;;;;;6230248;28;20564;-54
2021/10/13 00:57:18;;;;;;;6.40;4.13;;;;;;;;;;6233133;28;20320;-50
2021/10/13 01:00:42;;;;;;;7.00;6.13;;;;;;;;;;6229741;28;20236;-50
2021/10/13 01:04:10;;;;;;;7.70;4.30;;;;;;;;;;6232246;28;20601;-52
2021/10/13 01:07:35;;;;;;;5.07;4.43;;;;;;;;;;6230231;28;20216;-52
2021/10/13 01:11:02;;;;;;;5.00;4.53;;;;;;;;;;6232056;28;20295;-52
2021/10/13 01:14:31;;;;;;;4.90;4.47;;;;;;;;;;6230557;28;20213;-52
2021/10/13 01:17:53;;;;;;;8.80;5.37;;;;;;;;;;6227836;28;20224;-56
2021/10/13 01:21:14;;;;;;;4.70;4.30;;;;;;;;;;6229672;28;20477;-50
2021/10/13 01:24:45;;;;;;;4.87;4.47;;;;;;;;;;6233364;28;20213;-52
2021/10/13 01:28:10;;;;;;;8.60;5.37;;;;;;;;;;6229708;28;20212;-53
2021/10/13 01:31:36;;;;;;;5.90;4.40;;;;;;;;;;6230742;28;20224;-51
2021/10/13 01:34:58;;;;;;;4.90;4.43;;;;;;;;;;6230269;28;20221;-51
2021/10/13 01:38:19;;;;;;;5.20;4.33;;;;;;;;;;6229800;28;20533;-54
2021/10/13 01:41:41;;;;;;;5.40;5.00;;;;;;;;;;6230358;28;20229;-51
2021/10/13 01:45:03;;;;;;;6.40;4.50;;;;;;;;;;6228541;28;20849;-51
2021/10/13 01:48:25;;;;;;;5.10;4.10;;;;;;;;;;6232012;28;20236;-52
2021/10/13 01:51:46;;;;;;;6.17;4.30;;;;;;;;;;6230324;28;20220;-52
2021/10/13 01:55:08;;;;;;;6.27;4.67;;;;;;;;;;6232493;28;20263;-54
2021/10/13 01:58:29;;;;;;;5.10;4.60;;;;;;;;;;6231724;28;20209;-49
2021/10/13 02:01:52;;;;;;;5.23;4.83;;;;;;;;;;6229718;28;20241;-54
2021/10/13 02:05:13;;;;;;;6.37;5.77;;;;;;;;;;6232570;28;20236;-50
2021/10/13 02:08:35;;;;;;;5.47;4.97;;;;;;;;;;6230697;28;20193;-49
2021/10/13 02:11:57;;;;;;;4.83;4.43;;;;;;;;;;6230071;28;20236;-52
2021/10/13 02:15:18;;;;;;;6.37;5.37;;;;;;;;;;6227807;28;20251;-49
2021/10/13 02:18:40;;;;;;;5.80;5.23;;;;;;;;;;6229490;28;20229;-50
2021/10/13 02:22:02;;;;;;;5.77;5.13;;;;;;;;;;6232222;28;20719;-54
2021/10/13 02:25:23;;;;;;;5.37;4.97;;;;;;;;;;6232586;28;20228;-51
2021/10/13 02:28:46;;;;;;;6.13;5.63;;;;;;;;;;6229235;28;20201;-51
2021/10/13 02:32:07;;;;;;;5.80;4.77;;;;;;;;;;6225791;28;20220;-51
2021/10/13 02:35:29;;;;;;;5.57;5.07;;;;;;;;;;6233260;28;20271;-49
2021/10/13 02:38:49;;;;;;;6.03;5.40;;;;;;;;;;6230105;28;20197;-51
2021/10/13 02:42:10;;;;;;;6.27;4.77;;;;;;;;;;6228315;28;20609;-55
2021/10/13 02:45:32;;;;;;;5.90;5.30;;;;;;;;;;6230242;28;20505;-51
2021/10/13 02:48:55;;;;;;;6.67;6.07;;;;;;;;;;6229478;28;20196;-51
2021/10/13 02:52:20;;;;;;;6.33;5.73;;;;;;;;;;6226547;28;20225;-53
2021/10/13 02:55:43;;;;;;;7.00;6.40;;;;;;;;;;6230503;28;20232;-54
2021/10/13 02:59:06;;;;;;;6.43;5.93;;;;;;;;;;6230894;28;20646;-52
2021/10/13 03:02:28;;;;;;;6.33;5.70;;;;;;;;;;6203173;28;20233;-51
2021/10/13 03:05:49;;;;;;;5.43;4.93;;;;;;;;;;6232985;28;20237;-50
2021/10/13 03:09:12;;;;;;;52.33;47.37;;;;;;;;;;6232564;28;20208;-51
2021/10/13 03:12:36;;;;;;;41.30;37.53;;;;;;;;;;6231778;28;20221;-53
2021/10/13 03:15:57;;;;;;;18.00;16.40;;;;;;;;;;6229213;28;20232;-55
2021/10/13 03:19:18;;;;;;;7.10;6.40;;;;;;;;;;6229099;28;20241;-54
2021/10/13 03:22:39;;;;;;;7.60;6.93;;;;;;;;;;6231708;28;20208;-53
2021/10/13 03:26:06;;;;;;;7.57;6.60;;;;;;;;;;6231156;28;20237;-49
2021/10/13 03:29:27;;;;;;;7.53;6.87;;;;;;;;;;6231556;28;20482;-52
2021/10/13 03:32:48;;;;;;;6.93;6.23;;;;;;;;;;6231017;28;20545;-53
2021/10/13 03:36:09;;;;;;;8.33;7.53;;;;;;;;;;6232622;28;20629;-51
2021/10/13 03:39:30;;;;;;;7.30;6.60;;;;;;;;;;6229293;28;20299;-51
2021/10/13 03:42:52;;;;;;;8.83;7.93;;;;;;;;;;6236066;28;20274;-47
2021/10/13 03:46:16;;;;;;;11.47;10.23;;;;;;;;;;6236752;28;20654;-50
2021/10/13 03:49:36;;;;;;;7.67;6.93;;;;;;;;;;6233918;28;20568;-51
2021/10/13 03:52:57;;;;;;;7.83;7.20;;;;;;;;;;6231402;28;20256;-49
2021/10/13 03:56:18;;;;;;;8.00;6.50;;;;;;;;;;6233126;28;20224;-50
2021/10/13 03:59:40;;;;;;;6.80;5.83;;;;;;;;;;6235441;28;20193;-53
2021/10/13 04:03:00;;;;;;;9.50;8.13;;;;;;;;;;6236316;28;20198;-50
2021/10/13 04:06:21;;;;;;;6.23;5.70;;;;;;;;;;6233200;28;20494;-53
2021/10/13 04:09:41;;;;;;;34.57;31.40;;;;;;;;;;6233079;28;20193;-52
2021/10/13 04:13:01;;;;;;;37.17;33.73;;;;;;;;;;6236845;28;20226;-51
2021/10/13 04:16:23;;;;;;;40.80;37.00;;;;;;;;;;6232477;28;20228;-53
2021/10/13 04:19:44;;;;;;;19.67;17.70;;;;;;;;;;6231035;28;20220;-50
2021/10/13 04:23:04;;;;;;;14.60;13.30;;;;;;;;;;6237376;28;20534;-52
2021/10/13 04:26:25;;;;;;;8.37;7.47;;;;;;;;;;6232746;28;20228;-48
2021/10/13 04:29:45;;;;;;;9.10;8.23;;;;;;;;;;6232353;28;20228;-53
2021/10/13 04:33:07;;;;;;;9.97;8.97;;;;;;;;;;6234173;28;20189;-51
2021/10/13 04:36:27;;;;;;;11.97;10.80;;;;;;;;;;6229938;28;20255;-52
2021/10/13 04:39:47;;;;;;;9.00;8.10;;;;;;;;;;6234069;28;20498;-55
2021/10/13 04:43:08;;;;;;;10.70;9.10;;;;;;;;;;6236274;28;20582;-53
2021/10/13 04:46:29;;;;;;;11.77;9.83;;;;;;;;;;6233163;28;20236;-54
2021/10/13 04:49:50;;;;;;;9.53;8.20;;;;;;;;;;6231206;28;20240;-54
2021/10/13 04:53:11;;;;;;;10.17;9.13;;;;;;;;;;6234915;28;20236;-49
2021/10/13 04:56:31;;;;;;;10.17;9.20;;;;;;;;;;6233783;28;20228;-50
2021/10/13 04:59:54;;;;;;;11.93;8.47;;;;;;;;;;6230290;28;20563;-55
2021/10/13 05:03:15;;;;;;;11.03;8.87;;;;;;;;;;6229055;28;21152;-53
2021/10/13 05:06:37;;;;;;;10.30;8.43;;;;;;;;;;6209525;28;20608;-52
2021/10/13 05:09:58;;;;;;;14.47;10.43;;;;;;;;;;6225443;28;20255;-49
2021/10/13 05:13:18;;;;;;;12.37;11.17;;;;;;;;;;6226991;28;20216;-52
2021/10/13 05:16:40;;;;;;;11.37;10.27;;;;;;;;;;6230067;28;20319;-54
2021/10/13 05:20:00;;;;;;;11.70;10.43;;;;;;;;;;6239181;28;20232;-53
2021/10/13 05:23:22;;;;;;;18.33;16.57;;;;;;;;;;6234726;28;20209;-51
2021/10/13 05:26:43;;;;;;;41.73;37.67;;;;;;;;;;6232901;28;20232;-51
2021/10/13 05:30:03;;;;;;;13.80;12.50;;;;;;;;;;6230027;28;20229;-51
2021/10/13 05:33:24;;;;;;;12.20;11.10;;;;;;;;;;6242634;28;20243;-53
2021/10/13 05:36:45;;;;;;;11.20;10.07;;;;;;;;;;6237284;28;20229;-55
2021/10/13 05:40:07;;;;;;;9.27;8.40;;;;;;;;;;6230911;28;20229;-51
2021/10/13 05:43:28;;;;;;;10.70;9.57;;;;;;;;;;6232910;28;20193;-50
2021/10/13 05:46:48;;;;;;;11.73;10.23;;;;;;;;;;6230503;28;20229;-54
2021/10/13 05:50:09;;;;;;;11.77;9.37;;;;;;;;;;6233081;28;20233;-54
2021/10/13 05:53:30;;;;;;;12.13;9.70;;;;;;;;;;6238039;28;20205;-52
2021/10/13 05:56:52;;;;;;;11.50;9.80;;;;;;;;;;6235536;28;20252;-52
2021/10/13 06:00:13;;;;;;;11.47;9.20;;;;;;;;;;6233675;28;20229;-51
2021/10/13 06:03:33;;;;;;;11.07;9.97;;;;;;;;;;6231351;28;20221;-53
2021/10/13 06:06:54;;;;;;;12.20;10.93;;;;;;;;;;6226313;28;20233;-53
2021/10/13 06:10:15;;;;;;;10.60;9.17;;;;;;;;;;6234027;28;20827;-50
2021/10/13 06:13:37;;;;;;;9.73;8.63;;;;;;;;;;6236056;28;20189;-47
2021/10/13 06:16:57;;;;;;;11.67;9.73;;;;;;;;;;6225225;28;20232;-54
2021/10/13 06:20:18;;;;;;;34.23;30.90;;;;;;;;;;6231680;28;20316;-52
2021/10/13 06:23:38;;;;;;;23.13;20.77;;;;;;;;;;6231670;28;20205;-53
2021/10/13 06:26:59;;;;;;;10.77;9.67;;;;;;;;;;6236263;28;20232;-55
2021/10/13 06:30:21;;;;;;;30.73;27.80;;;;;;;;;;6230495;28;20228;-52
2021/10/13 06:33:42;;;;;;;46.60;41.87;;;;;;;;;;6233360;28;20614;-52
2021/10/13 06:37:03;;;;;;;14.23;12.70;;;;;;;;;;6238091;28;20228;-54
2021/10/13 06:40:23;;;;;;;6.80;6.10;;;;;;;;;;6233277;28;20573;-49
2021/10/13 06:43:44;;;;;;;6.43;5.77;;;;;;;;;;6228445;28;20201;-50
2021/10/13 06:47:06;;;;;;;29.13;26.20;;;;;;;;;;6228118;28;20229;-54
2021/10/13 06:50:26;;;;;;;30.45;27.70;;;;;;;;;;6220634;28;20754;-52
2021/10/13 06:53:47;;;;;;;5.60;5.10;;;;;;;;;;6229712;28;20205;-52
2021/10/13 06:57:07;;;;;;;7.70;5.47;;;;;;;;;;6232960;28;20216;-50
2021/10/13 07:00:28;;;;;;;7.17;4.77;;;;;;;;;;6235904;28;20588;-53
2021/10/13 07:03:49;;;;;;;4.33;3.93;;;;;;;;;;6233725;28;20196;-53
2021/10/13 07:07:10;;;;;;;4.53;3.97;;;;;;;;;;6237192;28;20236;-51
2021/10/13 07:10:31;;;;;;;4.17;3.83;;;;;;;;;;6233355;28;20241;-54
2021/10/13 07:13:51;;;;;;;5.93;4.77;;;;;;;;;;6235082;28;20295;-51
2021/10/13 07:17:11;;;;;;;5.03;4.53;;;;;;;;;;6231819;28;20233;-54
2021/10/13 07:20:33;;;;;;;5.03;3.63;;;;;;;;;;6230444;28;20232;-51
2021/10/13 07:23:54;;;;;;;4.23;3.17;;;;;;;;;;6231273;28;20205;-48
2021/10/13 07:27:15;;;;;;;8.10;3.90;;;;;;;;;;6229884;28;20282;-50
2021/10/13 07:30:35;;;;;;;2.93;2.63;;;;;;;;;;6227846;28;20331;-52
2021/10/13 07:33:56;;;;;;;8.57;4.07;;;;;;;;;;6237258;28;20238;-50
2021/10/13 07:37:18;;;;;;;4.33;3.93;;;;;;;;;;6228100;28;20236;-52
2021/10/13 07:40:39;;;;;;;5.40;4.47;;;;;;;;;;6232662;28;20232;-50
2021/10/13 07:43:59;;;;;;;6.93;3.97;;;;;;;;;;6233355;28;20209;-52
2021/10/13 07:47:20;;;;;;;4.03;3.73;;;;;;;;;;6230705;28;20224;-51
2021/10/13 07:50:40;;;;;;;4.47;3.93;;;;;;;;;;6227183;28;20331;-47
2021/10/13 07:54:02;;;;;;;5.47;4.20;;;;;;;;;;6227490;28;20204;-53
2021/10/13 07:57:23;;;;;;;4.67;4.23;;;;;;;;;;6231825;28;20460;-53
2021/10/13 08:00:43;;;;;;;5.00;4.43;;;;;;;;;;6231061;28;20693;-51
2021/10/13 08:04:04;;;;;;;6.00;3.97;;;;;;;;;;6236788;28;20236;-51
2021/10/13 08:07:24;;;;;;;5.70;3.90;;;;;;;;;;6225472;28;20705;-49
2021/10/13 08:10:46;;;;;;;5.67;4.83;;;;;;;;;;6228499;28;20236;-55
2021/10/13 08:14:06;;;;;;;3.87;3.47;;;;;;;;;;6227217;28;20200;-54
2021/10/13 08:17:27;;;;;;;5.07;3.53;;;;;;;;;;6228314;28;20228;-52
2021/10/13 08:20:47;;;;;;;3.73;2.50;;;;;;;;;;6235787;28;20618;-52
2021/10/13 08:24:08;;;;;;;6.53;4.67;;;;;;;;;;6232077;28;20669;-53
2021/10/13 08:27:30;;;;;;;6.57;3.53;;;;;;;;;;6237835;28;20229;-52
2021/10/13 08:30:50;;;;;;;5.17;3.60;;;;;;;;;;6233835;28;20224;-49
2021/10/13 08:34:11;;;;;;;6.80;4.83;;;;;;;;;;6238460;28;20634;-50
2021/10/13 08:37:32;;;;;;;6.23;4.47;;;;;;;;;;6231680;28;20759;-50
2021/10/13 08:40:52;;;;;;;6.17;3.93;;;;;;;;;;6235218;28;20232;-51
2021/10/13 08:44:15;;;;;;;5.50;3.73;;;;;;;;;;6236677;28;20197;-54
2021/10/13 08:47:38;;;;;;;5.53;3.80;;;;;;;;;;6208875;28;20244;-51
2021/10/13 08:50:59;;;;;;;7.03;4.07;;;;;;;;;;6239129;28;20240;-53
2021/10/13 08:54:20;;;;;;;5.20;3.00;;;;;;;;;;6239032;28;20208;-50
2021/10/13 08:57:40;;;;;;;7.77;4.20;;;;;;;;;;6227437;28;20225;-53
2021/10/13 09:01:10;;;;;;;4.70;3.07;;;;;;;;;;6228120;28;20228;-51
2021/10/13 09:04:30;;;;;;;3.50;2.70;;;;;;;;;;6234486;28;20208;-53
2021/10/13 09:07:53;;;;;;;3.63;2.80;;;;;;;;;;6237427;28;20350;-50
2021/10/13 09:11:17;;;;;;;3.97;1.87;;;;;;;;;;6232058;28;20232;-49
2021/10/13 09:14:38;;;;;;;3.13;2.20;;;;;;;;;;6237819;28;20731;-51
2021/10/13 09:18:01;;;;;;;4.93;2.43;;;;;;;;;;6237718;28;20213;-51
2021/10/13 09:21:41;;;;;;;4.33;2.10;;;;;;;;;;6234537;28;20236;-52
2021/10/13 09:25:02;;;;;;;6.57;2.10;;;;;;;;;;6214979;28;20229;-56
2021/10/13 09:28:23;;;;;;;4.37;2.50;;;;;;;;;;6233009;28;20232;-50
2021/10/13 09:31:43;;;;;;;4.33;2.70;;;;;;;;;;6225923;28;20224;-51
2021/10/13 09:35:06;;;;;;;3.70;1.87;;;;;;;;;;6229403;28;20311;-51
2021/10/13 09:38:27;;;;;;;2.37;2.10;;;;;;;;;;6232959;28;20345;-46
2021/10/13 09:41:58;;;;;;;3.53;2.67;;;;;;;;;;6230064;28;20232;-54
2021/10/13 09:45:19;;;;;;;3.70;1.93;;;;;;;;;;6234337;28;20710;-52
2021/10/13 09:48:40;;;;;;;4.40;2.50;;;;;;;;;;6235061;28;20622;-55
2021/10/13 09:52:03;;;;;;;4.47;2.10;;;;;;;;;;6237871;28;20233;-54
2021/10/13 09:55:36;;;;;;;3.13;2.20;;;;;;;;;;6235692;28;20658;-54
2021/10/13 09:59:10;;;;;;;2.40;2.20;;;;;;;;;;6231098;28;20240;-52
2021/10/13 10:02:32;;;;;;;5.63;1.97;;;;;;;;;;6228339;28;20232;-54
2021/10/13 10:05:53;;;;;;;2.03;1.80;;;;;;;;;;6232146;28;20233;-50
2021/10/13 10:09:19;;;;;;;5.00;3.33;;;;;;;;;;6232700;28;20225;-53
2021/10/13 10:12:55;;;;;;;3.83;2.50;;;;;;;;;;6230952;28;20229;-50
2021/10/13 10:16:26;;;;;;;4.20;2.13;;;;;;;;;;6235522;28;20232;-50
2021/10/13 10:19:47;;;;;;;3.73;2.00;;;;;;;;;;6233261;28;20224;-52
2021/10/13 10:23:27;;;;;;;4.17;2.20;;;;;;;;;;6232879;28;20201;-53
2021/10/13 10:26:49;;;;;;;7.37;2.50;;;;;;;;;;6228954;28;20256;-55
2021/10/13 10:30:20;;;;;;;6.20;2.50;;;;;;;;;;6230606;28;20237;-55
2021/10/13 10:33:48;;;;;;;3.13;2.17;;;;;;;;;;6233590;28;20285;-52
2021/10/13 10:37:10;;;;;;;5.43;4.20;;;;;;;;;;6230286;28;20232;-51
2021/10/13 10:40:32;;;;;;;6.53;2.40;;;;;;;;;;6232976;28;20323;-54
2021/10/13 10:44:14;;;;;;;4.20;2.10;;;;;;;;;;6230301;28;20205;-52
2021/10/13 10:47:47;;;;;;;4.17;2.80;;;;;;;;;;6202801;28;22104;-53
2021/10/13 10:51:08;;;;;;;2.70;2.50;;;;;;;;;;6228739;28;20311;-53
2021/10/13 10:54:32;;;;;;;2.77;2.33;;;;;;;;;;6229199;28;20594;-53
2021/10/13 10:57:53;;;;;;;3.87;2.73;;;;;;;;;;6234915;28;20209;-51
2021/10/13 11:01:15;;;;;;;2.37;2.17;;;;;;;;;;6230441;28;20232;-49
2021/10/13 11:04:35;;;;;;;3.60;2.43;;;;;;;;;;6239800;28;20201;-52
2021/10/13 11:07:56;;;;;;;7.13;2.33;;;;;;;;;;6226637;28;20308;-55
2021/10/13 11:11:17;;;;;;;4.13;2.60;;;;;;;;;;6229088;28;20232;-54
2021/10/13 11:14:37;;;;;;;4.73;2.47;;;;;;;;;;6234441;28;20287;-50
2021/10/13 11:18:09;;;;;;;4.27;2.67;;;;;;;;;;6237394;28;20224;-53
2021/10/13 11:21:29;;;;;;;5.60;2.60;;;;;;;;;;6236259;28;20260;-54
2021/10/13 11:24:50;;;;;;;5.27;3.40;;;;;;;;;;6218348;28;20208;-51
2021/10/13 11:28:12;;;;;;;3.87;2.07;;;;;;;;;;6235482;28;20594;-54
2021/10/13 11:31:33;;;;;;;3.67;2.40;;;;;;;;;;6235917;28;20233;-51
2021/10/13 11:34:58;;;;;;;22.17;17.30;;;;;;;;;;6227567;28;20236;-50
2021/10/13 11:38:20;;;;;;;5.90;3.37;;;;;;;;;;6229806;28;20767;-50
2021/10/13 11:41:41;;;;;;;6.87;3.07;;;;;;;;;;6230286;28;20323;-51
2021/10/13 11:45:01;;;;;;;8.27;6.63;;;;;;;;;;6231595;28;20229;-50
2021/10/13 11:48:23;;;;;;;5.00;3.03;;;;;;;;;;6230451;28;20221;-54
2021/10/13 11:51:44;;;;;;;2.93;2.57;;;;;;;;;;6232129;28;20228;-53
2021/10/13 11:55:08;;;;;;;2.63;1.80;;;;;;;;;;6236225;28;20550;-55
2021/10/13 11:58:29;;;;;;;4.15;1.70;;;;;;;;;;6235637;28;20591;-57
2021/10/13 12:01:50;;;;;;;5.03;2.42;;;;;;;;;;6236654;28;20811;-52
2021/10/13 12:05:10;;;;;;;5.85;2.50;;;;;;;;;;6235568;28;20233;-52
2021/10/13 12:08:33;;;;;;;4.30;1.73;;;;;;;;;;6241134;28;20216;-54
2021/10/13 12:11:55;;;;;;;6.13;1.90;;;;;;;;;;6236122;28;20224;-52
2021/10/13 12:15:16;;;;;;;5.73;2.57;;;;;;;;;;6234622;28;20220;-55
2021/10/13 12:18:38;;;;;;;5.40;2.67;;;;;;;;;;6233639;28;20217;-52
2021/10/13 12:21:58;;;;;;;5.93;2.13;;;;;;;;;;6236326;28;20239;-53
2021/10/13 12:25:23;;;;;;;7.47;2.50;;;;;;;;;;6235123;28;20336;-51
2021/10/13 12:28:45;;;;;;;5.33;1.63;;;;;;;;;;6236807;28;20213;-54
2021/10/13 12:32:14;;;;;;;7.20;2.10;;;;;;;;;;6231807;28;20232;-54
2021/10/13 12:35:35;;;;;;;4.83;2.07;;;;;;;;;;6240426;28;20228;-54
2021/10/13 12:38:57;;;;;;;5.20;1.40;;;;;;;;;;6238750;28;20213;-52
2021/10/13 12:42:18;;;;;;;4.60;2.17;;;;;;;;;;6231648;28;20232;-52
2021/10/13 12:45:39;;;;;;;4.47;2.07;;;;;;;;;;6233173;28;20224;-52
2021/10/13 12:49:11;;;;;;;6.07;1.60;;;;;;;;;;6229949;28;20210;-54
2021/10/13 12:52:31;;;;;;;6.60;2.40;;;;;;;;;;6238746;28;20212;-47
2021/10/13 12:55:52;;;;;;;4.97;1.83;;;;;;;;;;6238142;28;20268;-53
2021/10/13 12:59:12;;;;;;;4.73;1.83;;;;;;;;;;6234351;28;20249;-53
2021/10/13 13:02:34;;;;;;;3.67;1.30;;;;;;;;;;6234145;28;20307;-50
2021/10/13 13:05:55;;;;;;;3.53;1.30;;;;;;;;;;6234552;28;20228;-52
2021/10/13 13:09:16;;;;;;;4.03;1.83;;;;;;;;;;6237401;28;20229;-51
2021/10/13 13:12:36;;;;;;;4.03;2.00;;;;;;;;;;6229109;28;20316;-51
2021/10/13 13:15:57;;;;;;;4.67;1.60;;;;;;;;;;6229719;28;20225;-55
2021/10/13 13:19:19;;;;;;;3.43;1.90;;;;;;;;;;6233650;28;20221;-50
2021/10/13 13:22:40;;;;;;;6.97;2.93;;;;;;;;;;6232361;28;20578;-53
2021/10/13 13:26:00;;;;;;;5.13;2.23;;;;;;;;;;6232405;28;20232;-55
2021/10/13 13:29:20;;;;;;;5.43;2.30;;;;;;;;;;6233867;28;20233;-53
2021/10/13 13:32:41;;;;;;;3.20;1.70;;;;;;;;;;6230789;28;20319;-52
2021/10/13 13:36:03;;;;;;;3.03;1.70;;;;;;;;;;6232265;28;20224;-49
2021/10/13 13:39:24;;;;;;;1.90;1.47;;;;;;;;;;6232357;28;20201;-51
2021/10/13 13:42:46;;;;;;;1.73;1.60;;;;;;;;;;6234371;28;20299;-52
2021/10/13 13:46:06;;;;;;;3.57;1.63;;;;;;;;;;6231172;28;20403;-49
2021/10/13 13:49:27;;;;;;;2.13;1.40;;;;;;;;;;6233961;28;20254;-54
2021/10/13 13:52:49;;;;;;;3.13;1.50;;;;;;;;;;6235449;28;20216;-50
2021/10/13 13:56:09;;;;;;;4.50;2.30;;;;;;;;;;6232873;28;20229;-53
2021/10/13 13:59:29;;;;;;;3.63;1.50;;;;;;;;;;6235078;28;20193;-51
2021/10/13 14:02:50;;;;;;;3.90;1.50;;;;;;;;;;6231454;28;20863;-52
2021/10/13 14:06:11;;;;;;;5.97;2.13;;;;;;;;;;6229686;28;20224;-54
2021/10/13 14:09:32;;;;;;;3.63;1.87;;;;;;;;;;6237849;28;20575;-52
2021/10/13 14:12:53;;;;;;;4.23;1.53;;;;;;;;;;6234833;28;20189;-51
2021/10/13 14:16:14;;;;;;;4.80;2.40;;;;;;;;;;6232348;28;20233;-52
2021/10/13 14:19:34;;;;;;;9.07;3.17;;;;;;;;;;6238614;28;20305;-54
2021/10/13 14:22:55;;;;;;;2.97;1.10;;;;;;;;;;6236980;28;20189;-54
2021/10/13 14:26:16;;;;;;;3.97;1.20;;;;;;;;;;6228474;28;20225;-53
2021/10/13 14:29:37;;;;;;;7.93;1.90;;;;;;;;;;6238427;28;20537;-54
2021/10/13 14:32:58;;;;;;;5.60;1.67;;;;;;;;;;6222883;28;20205;-49
2021/10/13 14:36:18;;;;;;;1.90;1.40;;;;;;;;;;6212029;28;20601;-52
2021/10/13 14:39:39;;;;;;;4.60;1.40;;;;;;;;;;6214793;28;20212;-51
2021/10/13 14:43:00;;;;;;;2.97;1.17;;;;;;;;;;6216161;28;20630;-50
2021/10/13 14:46:21;;;;;;;4.70;1.33;;;;;;;;;;6216142;28;23013;-54
2021/10/13 14:49:42;;;;;;;3.17;1.50;;;;;;;;;;6210141;28;20237;-53
2021/10/13 14:53:02;;;;;;;3.13;1.63;;;;;;;;;;6215425;28;21981;-49
2021/10/13 14:56:23;;;;;;;2.80;1.93;;;;;;;;;;6217320;28;20236;-51
2021/10/13 14:59:44;;;;;;;5.30;3.07;;;;;;;;;;6213093;28;20193;-51
2021/10/13 15:03:06;;;;;;;7.93;4.50;;;;;;;;;;6211032;28;20233;-57
2021/10/13 15:06:27;;;;;;;6.43;3.90;;;;;;;;;;6215308;28;20688;-56
2021/10/13 15:09:48;;;;;;;5.70;3.07;;;;;;;;;;6210769;28;20263;-53
2021/10/13 15:13:08;;;;;;;10.47;2.03;;;;;;;;;;6203715;28;20205;-54
2021/10/13 15:16:30;;;;;;;3.97;1.60;;;;;;;;;;6209294;28;20224;-50
2021/10/13 15:19:51;;;;;;;6.17;1.70;;;;;;;;;;6213346;28;26825;-52
2021/10/13 15:23:11;;;;;;;4.03;2.07;;;;;;;;;;6207693;28;20487;-53
2021/10/13 15:26:32;;;;;;;3.40;1.50;;;;;;;;;;6208939;28;20245;-51
2021/10/13 15:29:52;;;;;;;4.57;1.63;;;;;;;;;;6199658;28;20236;-50
2021/10/13 15:33:14;;;;;;;3.93;1.67;;;;;;;;;;6209937;28;20201;-53
2021/10/13 15:36:35;;;;;;;3.77;1.97;;;;;;;;;;6213521;28;20252;-51
2021/10/13 15:39:55;;;;;;;2.57;1.30;;;;;;;;;;6229495;28;20232;-52
2021/10/13 15:43:16;;;;;;;3.73;1.53;;;;;;;;;;6226562;28;20201;-52
2021/10/13 15:46:37;;;;;;;4.97;2.03;;;;;;;;;;6224479;28;20260;-51
2021/10/13 15:49:59;;;;;;;2.33;1.40;;;;;;;;;;6228098;28;20228;-50
2021/10/13 15:53:20;;;;;;;4.50;1.80;;;;;;;;;;6223682;28;20198;-54
2021/10/13 15:56:41;;;;;;;1.93;1.20;;;;;;;;;;6225963;28;20233;-52
2021/10/13 16:00:01;;;;;;;2.77;1.20;;;;;;;;;;6235725;28;20829;-51
2021/10/13 16:03:26;;;;;;;2.07;1.53;;;;;;;;;;6229236;28;20213;-53
2021/10/13 16:06:48;;;;;;;4.17;1.40;;;;;;;;;;6226694;28;20228;-54
2021/10/13 16:10:09;;;;;;;2.23;1.20;;;;;;;;;;6225999;28;20450;-56
2021/10/13 16:13:30;;;;;;;3.07;1.53;;;;;;;;;;6223441;28;20209;-55
2021/10/13 16:16:50;;;;;;;5.13;1.90;;;;;;;;;;6213340;28;20542;-54
2021/10/13 16:20:11;;;;;;;4.60;2.23;;;;;;;;;;6222912;28;20233;-48
2021/10/13 16:23:33;;;;;;;4.27;1.83;;;;;;;;;;6219494;28;20216;-51
2021/10/13 16:26:54;;;;;;;7.43;2.57;;;;;;;;;;6220412;28;20229;-52
2021/10/13 16:30:15;;;;;;;2.07;1.60;;;;;;;;;;6227163;28;20236;-56
2021/10/13 16:33:35;;;;;;;2.37;2.00;;;;;;;;;;6225586;28;20221;-54
2021/10/13 16:36:56;;;;;;;5.60;2.40;;;;;;;;;;6222401;28;20559;-52
2021/10/13 16:40:18;;;;;;;4.07;1.90;;;;;;;;;;6225202;28;20220;-55
2021/10/13 16:43:40;;;;;;;4.37;2.00;;;;;;;;;;6224282;28;20201;-54
2021/10/13 16:47:02;;;;;;;5.70;2.33;;;;;;;;;;6223339;28;20264;-53
2021/10/13 16:50:22;;;;;;;5.37;1.80;;;;;;;;;;6229728;28;20256;-54
2021/10/13 16:53:43;;;;;;;6.13;2.47;;;;;;;;;;6232401;28;20189;-54
2021/10/13 16:57:05;;;;;;;6.83;2.97;;;;;;;;;;6226939;28;20240;-53
2021/10/13 17:00:25;;;;;;;4.60;2.63;;;;;;;;;;6227177;28;20248;-52
2021/10/13 17:03:45;;;;;;;7.17;2.63;;;;;;;;;;6223121;28;20197;-54
2021/10/13 17:07:06;;;;;;;5.80;1.97;;;;;;;;;;6223414;28;20328;-52
2021/10/13 17:10:27;;;;;;;4.43;2.33;;;;;;;;;;6224666;28;20522;-51
2021/10/13 17:13:49;;;;;;;8.33;4.33;;;;;;;;;;6234469;28;20500;-50
2021/10/13 17:17:09;;;;;;;4.73;2.97;;;;;;;;;;6225142;28;20240;-54
2021/10/13 17:20:32;;;;;;;4.50;2.30;;;;;;;;;;6227586;28;20232;-53
2021/10/13 17:23:52;;;;;;;3.30;2.17;;;;;;;;;;6229330;28;20213;-52
2021/10/13 17:27:13;;;;;;;5.53;3.50;;;;;;;;;;6220227;28;20260;-51
2021/10/13 17:30:35;;;;;;;4.60;3.10;;;;;;;;;;6224288;28;20236;-55
2021/10/13 17:33:55;;;;;;;4.37;2.63;;;;;;;;;;6228129;28;20389;-53
2021/10/13 17:37:16;;;;;;;5.77;2.83;;;;;;;;;;6224193;28;20228;-49
2021/10/13 17:40:37;;;;;;;3.77;2.13;;;;;;;;;;6218486;28;20237;-51
2021/10/13 17:43:57;;;;;;;4.97;2.43;;;;;;;;;;6223745;28;20208;-54
2021/10/13 17:47:20;;;;;;;6.47;3.27;;;;;;;;;;6228487;28;20233;-56
2021/10/13 17:50:41;;;;;;;8.83;3.20;;;;;;;;;;6231517;28;20233;-51
2021/10/13 17:54:01;;;;;;;4.63;2.70;;;;;;;;;;6226719;28;20469;-54
2021/10/13 17:57:22;;;;;;;6.20;2.90;;;;;;;;;;6228949;28;20315;-48
2021/10/13 18:00:42;;;;;;;9.13;5.00;;;;;;;;;;6229956;28;20269;-56
2021/10/13 18:04:04;;;;;;;9.57;4.13;;;;;;;;;;6238695;28;20299;-55
2021/10/13 18:07:24;;;;;;;8.10;4.07;;;;;;;;;;6234051;28;20247;-49
2021/10/13 18:10:45;;;;;;;6.70;3.13;;;;;;;;;;6237851;28;20224;-53
2021/10/13 18:14:05;;;;;;;5.80;3.13;;;;;;;;;;6231521;28;20238;-50
2021/10/13 18:17:26;;;;;;;3.57;2.53;;;;;;;;;;6230628;28;20634;-51
2021/10/13 18:20:48;;;;;;;6.80;3.13;;;;;;;;;;6234568;28;20311;-54
2021/10/13 18:24:08;;;;;;;4.53;2.67;;;;;;;;;;6235733;28;20209;-55
2021/10/13 18:27:29;;;;;;;4.27;2.60;;;;;;;;;;6232892;28;20232;-53
2021/10/13 18:30:49;;;;;;;9.70;4.00;;;;;;;;;;6230751;28;20229;-51
2021/10/13 18:34:10;;;;;;;5.67;2.93;;;;;;;;;;6237089;28;20288;-52
2021/10/13 18:37:32;;;;;;;4.80;2.23;;;;;;;;;;6235476;28;20252;-53
2021/10/13 18:40:52;;;;;;;4.93;2.10;;;;;;;;;;6231476;28;20323;-52
2021/10/13 18:44:13;;;;;;;2.27;1.80;;;;;;;;;;6234799;28;20200;-54
2021/10/13 18:47:36;;;;;;;5.43;2.50;;;;;;;;;;6233992;28;20217;-54
2021/10/13 18:50:56;;;;;;;7.17;2.63;;;;;;;;;;6229416;28;20236;-53
2021/10/13 18:54:18;;;;;;;2.67;2.10;;;;;;;;;;6228821;28;22354;-51
2021/10/13 18:57:39;;;;;;;3.37;1.93;;;;;;;;;;6233058;28;20220;-52
2021/10/13 19:00:59;;;;;;;6.83;2.97;;;;;;;;;;6231516;28;20803;-50
2021/10/13 19:04:19;;;;;;;5.80;2.80;;;;;;;;;;6236997;28;20205;-53
2021/10/13 19:07:40;;;;;;;3.80;2.73;;;;;;;;;;6233802;28;20232;-55
2021/10/13 19:11:02;;;;;;;7.40;3.07;;;;;;;;;;6235260;28;20240;-54
2021/10/13 19:14:22;;;;;;;4.60;2.83;;;;;;;;;;6233792;28;20566;-49
2021/10/13 19:17:43;;;;;;;6.93;3.63;;;;;;;;;;6222872;28;20555;-53
2021/10/13 19:21:04;;;;;;;8.20;4.20;;;;;;;;;;6230911;28;20316;-54
2021/10/13 19:24:24;;;;;;;7.93;3.93;;;;;;;;;;6229869;28;20204;-53
2021/10/13 19:27:46;;;;;;;7.37;4.30;;;;;;;;;;6227067;28;20394;-54
2021/10/13 19:31:07;;;;;;;5.93;3.60;;;;;;;;;;6227935;28;20220;-51
2021/10/13 19:34:27;;;;;;;7.67;4.73;;;;;;;;;;6229460;28;20197;-51
2021/10/13 19:37:48;;;;;;;6.00;4.40;;;;;;;;;;6229232;28;20220;-52
2021/10/13 19:41:08;;;;;;;8.30;4.07;;;;;;;;;;6226570;28;20518;-52
2021/10/13 19:44:30;;;;;;;10.27;4.30;;;;;;;;;;6236190;28;20201;-55
2021/10/13 19:47:51;;;;;;;16.83;4.60;;;;;;;;;;6226260;28;20216;-54
2021/10/13 19:51:12;;;;;;;11.90;5.40;;;;;;;;;;6224984;28;20620;-54
2021/10/13 19:54:33;;;;;;;8.70;4.53;;;;;;;;;;6224181;28;20231;-51
2021/10/13 19:57:53;;;;;;;7.73;5.40;;;;;;;;;;6226311;28;20194;-53
2021/10/13 20:01:15;;;;;;;7.07;4.97;;;;;;;;;;6222815;28;20232;-51
2021/10/13 20:04:36;;;;;;;8.47;4.73;;;;;;;;;;6224615;28;20196;-55